sensor_id;sensor_type;location;lat;lon;timestamp;P1;durP1;ratioP1;P2;durP2;ratioP2
5995;SDS011;3026;53.612;7.278;2024-01-30T00:01:08;15.80;;;11.87;;
5995;SDS011;3026;53.612;7.278;2024-01-30T00:03:35;18.73;;;11.37;;
5995;SDS011;3026;53.612;7.278;2024-01-30T00:06:04;15.83;;;11.30;;
5995;SDS011;3026;53.612;7.278;2024-01-30T00:08:32;15.10;;;11.63;;
5995;SDS011;3026;53.612;7.278;2024-01-30T00:10:59;18.37;;;11.37;;
5995;SDS011;3026;53.612;7.278;2024-01-30T00:13:26;16.33;;;11.13;;
5995;SDS011;3026;53.612;7.278;2024-01-30T00:15:55;15.23;;;11.43;;
5995;SDS011;3026;53.612;7.278;2024-01-30T00:18:23;17.37;;;11.77;;
5995;SDS011;3026;53.612;7.278;2024-01-30T00:20:50;17.67;;;12.03;;
5995;SDS011;3026;53.612;7.278;2024-01-30T00:23:18;15.03;;;11.93;;
5995;SDS011;3026;53.612;7.278;2024-01-30T00:25:45;16.63;;;12.20;;
5995;SDS011;3026;53.612;7.278;2024-01-30T00:28:12;15.63;;;11.33;;
5995;SDS011;3026;53.612;7.278;2024-01-30T00:30:39;19.93;;;12.37;;
5995;SDS011;3026;53.612;7.278;2024-01-30T00:33:07;15.13;;;10.97;;
5995;SDS011;3026;53.612;7.278;2024-01-30T00:35:36;14.90;;;11.27;;
5995;SDS011;3026;53.612;7.278;2024-01-30T00:38:07;17.63;;;12.07;;
5995;SDS011;3026;53.612;7.278;2024-01-30T00:40:34;13.60;;;10.67;;
5995;SDS011;3026;53.612;7.278;2024-01-30T00:43:02;14.93;;;11.17;;
5995;SDS011;3026;53.612;7.278;2024-01-30T00:45:29;15.77;;;11.63;;
5995;SDS011;3026;53.612;7.278;2024-01-30T00:47:56;19.33;;;11.47;;
5995;SDS011;3026;53.612;7.278;2024-01-30T00:50:23;14.70;;;11.80;;
5995;SDS011;3026;53.612;7.278;2024-01-30T00:52:52;16.60;;;11.60;;
5995;SDS011;3026;53.612;7.278;2024-01-30T00:55:19;19.10;;;11.60;;
5995;SDS011;3026;53.612;7.278;2024-01-30T00:57:46;17.03;;;11.90;;
5995;SDS011;3026;53.612;7.278;2024-01-30T01:00:14;17.43;;;12.90;;
5995;SDS011;3026;53.612;7.278;2024-01-30T01:02:43;15.37;;;11.20;;
5995;SDS011;3026;53.612;7.278;2024-01-30T01:05:11;17.47;;;11.40;;
5995;SDS011;3026;53.612;7.278;2024-01-30T01:07:39;15.00;;;11.60;;
5995;SDS011;3026;53.612;7.278;2024-01-30T01:10:09;17.80;;;12.97;;
5995;SDS011;3026;53.612;7.278;2024-01-30T01:12:37;18.77;;;12.40;;
5995;SDS011;3026;53.612;7.278;2024-01-30T01:15:04;18.40;;;13.27;;
5995;SDS011;3026;53.612;7.278;2024-01-30T01:17:34;16.03;;;11.70;;
5995;SDS011;3026;53.612;7.278;2024-01-30T01:20:02;19.33;;;12.97;;
5995;SDS011;3026;53.612;7.278;2024-01-30T01:22:31;16.50;;;13.03;;
5995;SDS011;3026;53.612;7.278;2024-01-30T01:24:58;16.50;;;12.33;;
5995;SDS011;3026;53.612;7.278;2024-01-30T01:27:27;18.13;;;13.33;;
5995;SDS011;3026;53.612;7.278;2024-01-30T01:29:55;17.70;;;12.17;;
5995;SDS011;3026;53.612;7.278;2024-01-30T01:32:22;16.67;;;12.33;;
5995;SDS011;3026;53.612;7.278;2024-01-30T01:34:50;20.10;;;13.53;;
5995;SDS011;3026;53.612;7.278;2024-01-30T01:37:17;16.77;;;12.70;;
5995;SDS011;3026;53.612;7.278;2024-01-30T01:39:49;18.43;;;12.50;;
5995;SDS011;3026;53.612;7.278;2024-01-30T01:42:16;19.13;;;13.07;;
5995;SDS011;3026;53.612;7.278;2024-01-30T01:44:46;20.93;;;13.43;;
5995;SDS011;3026;53.612;7.278;2024-01-30T01:47:13;17.17;;;11.57;;
5995;SDS011;3026;53.612;7.278;2024-01-30T01:49:43;16.07;;;11.70;;
5995;SDS011;3026;53.612;7.278;2024-01-30T01:52:10;19.10;;;12.80;;
5995;SDS011;3026;53.612;7.278;2024-01-30T01:54:37;18.20;;;12.40;;
5995;SDS011;3026;53.612;7.278;2024-01-30T01:57:04;18.13;;;12.27;;
5995;SDS011;3026;53.612;7.278;2024-01-30T01:59:32;20.10;;;12.90;;
5995;SDS011;3026;53.612;7.278;2024-01-30T02:02:01;15.33;;;11.57;;
5995;SDS011;3026;53.612;7.278;2024-01-30T02:04:35;17.23;;;11.77;;
5995;SDS011;3026;53.612;7.278;2024-01-30T02:07:02;17.13;;;12.20;;
5995;SDS011;3026;53.612;7.278;2024-01-30T02:09:30;19.97;;;12.87;;
5995;SDS011;3026;53.612;7.278;2024-01-30T02:11:57;18.50;;;12.03;;
5995;SDS011;3026;53.612;7.278;2024-01-30T02:14:28;20.50;;;14.03;;
5995;SDS011;3026;53.612;7.278;2024-01-30T02:16:55;14.93;;;11.53;;
5995;SDS011;3026;53.612;7.278;2024-01-30T02:19:24;17.57;;;11.40;;
5995;SDS011;3026;53.612;7.278;2024-01-30T02:21:53;19.20;;;12.20;;
5995;SDS011;3026;53.612;7.278;2024-01-30T02:24:23;18.00;;;12.23;;
5995;SDS011;3026;53.612;7.278;2024-01-30T02:26:50;17.93;;;11.90;;
5995;SDS011;3026;53.612;7.278;2024-01-30T02:29:17;17.90;;;11.30;;
5995;SDS011;3026;53.612;7.278;2024-01-30T02:31:44;19.17;;;12.60;;
5995;SDS011;3026;53.612;7.278;2024-01-30T02:34:13;20.33;;;12.30;;
5995;SDS011;3026;53.612;7.278;2024-01-30T02:36:42;15.27;;;12.10;;
5995;SDS011;3026;53.612;7.278;2024-01-30T02:39:11;20.43;;;12.23;;
5995;SDS011;3026;53.612;7.278;2024-01-30T02:41:38;16.37;;;11.37;;
5995;SDS011;3026;53.612;7.278;2024-01-30T02:44:05;19.50;;;12.40;;
5995;SDS011;3026;53.612;7.278;2024-01-30T02:46:32;20.20;;;11.90;;
5995;SDS011;3026;53.612;7.278;2024-01-30T02:48:59;19.17;;;11.83;;
5995;SDS011;3026;53.612;7.278;2024-01-30T02:51:28;17.97;;;12.87;;
5995;SDS011;3026;53.612;7.278;2024-01-30T02:53:55;14.60;;;10.87;;
5995;SDS011;3026;53.612;7.278;2024-01-30T02:56:24;15.93;;;11.90;;
5995;SDS011;3026;53.612;7.278;2024-01-30T02:58:53;17.37;;;11.87;;
5995;SDS011;3026;53.612;7.278;2024-01-30T03:01:20;16.47;;;10.67;;
5995;SDS011;3026;53.612;7.278;2024-01-30T03:03:49;16.30;;;11.23;;
5995;SDS011;3026;53.612;7.278;2024-01-30T03:06:16;17.23;;;11.87;;
5995;SDS011;3026;53.612;7.278;2024-01-30T03:08:45;14.40;;;10.97;;
5995;SDS011;3026;53.612;7.278;2024-01-30T03:11:12;17.07;;;11.70;;
5995;SDS011;3026;53.612;7.278;2024-01-30T03:13:43;16.10;;;11.93;;
5995;SDS011;3026;53.612;7.278;2024-01-30T03:16:09;14.07;;;10.80;;
5995;SDS011;3026;53.612;7.278;2024-01-30T03:18:37;16.87;;;11.73;;
5995;SDS011;3026;53.612;7.278;2024-01-30T03:21:04;17.77;;;11.70;;
5995;SDS011;3026;53.612;7.278;2024-01-30T03:23:31;18.93;;;11.40;;
5995;SDS011;3026;53.612;7.278;2024-01-30T03:25:59;16.60;;;11.97;;
5995;SDS011;3026;53.612;7.278;2024-01-30T03:28:26;16.77;;;11.43;;
5995;SDS011;3026;53.612;7.278;2024-01-30T03:30:56;16.37;;;11.40;;
5995;SDS011;3026;53.612;7.278;2024-01-30T03:33:23;18.00;;;11.40;;
5995;SDS011;3026;53.612;7.278;2024-01-30T03:35:51;16.53;;;11.07;;
5995;SDS011;3026;53.612;7.278;2024-01-30T03:38:17;16.47;;;11.57;;
5995;SDS011;3026;53.612;7.278;2024-01-30T03:40:47;15.50;;;11.60;;
5995;SDS011;3026;53.612;7.278;2024-01-30T03:43:14;14.90;;;10.50;;
5995;SDS011;3026;53.612;7.278;2024-01-30T03:45:43;16.30;;;10.63;;
5995;SDS011;3026;53.612;7.278;2024-01-30T03:48:11;13.73;;;10.47;;
5995;SDS011;3026;53.612;7.278;2024-01-30T03:50:39;16.17;;;11.37;;
5995;SDS011;3026;53.612;7.278;2024-01-30T03:53:06;16.93;;;11.13;;
5995;SDS011;3026;53.612;7.278;2024-01-30T03:55:33;18.00;;;11.07;;
5995;SDS011;3026;53.612;7.278;2024-01-30T03:58:02;18.77;;;12.03;;
5995;SDS011;3026;53.612;7.278;2024-01-30T04:00:30;13.47;;;10.80;;
5995;SDS011;3026;53.612;7.278;2024-01-30T04:02:57;17.37;;;11.47;;
5995;SDS011;3026;53.612;7.278;2024-01-30T04:05:26;15.23;;;11.77;;
5995;SDS011;3026;53.612;7.278;2024-01-30T04:07:53;18.10;;;11.63;;
5995;SDS011;3026;53.612;7.278;2024-01-30T04:10:20;16.03;;;11.00;;
5995;SDS011;3026;53.612;7.278;2024-01-30T04:12:48;15.33;;;10.90;;
5995;SDS011;3026;53.612;7.278;2024-01-30T04:15:15;15.83;;;10.70;;
5995;SDS011;3026;53.612;7.278;2024-01-30T04:17:42;15.57;;;10.70;;
5995;SDS011;3026;53.612;7.278;2024-01-30T04:20:13;17.97;;;11.50;;
5995;SDS011;3026;53.612;7.278;2024-01-30T04:22:44;18.03;;;11.23;;
5995;SDS011;3026;53.612;7.278;2024-01-30T04:25:12;15.33;;;11.00;;
5995;SDS011;3026;53.612;7.278;2024-01-30T04:27:41;19.03;;;12.37;;
5995;SDS011;3026;53.612;7.278;2024-01-30T04:30:08;15.17;;;11.13;;
5995;SDS011;3026;53.612;7.278;2024-01-30T04:32:38;15.30;;;10.73;;
5995;SDS011;3026;53.612;7.278;2024-01-30T04:35:06;14.53;;;10.90;;
5995;SDS011;3026;53.612;7.278;2024-01-30T04:37:33;15.63;;;10.83;;
5995;SDS011;3026;53.612;7.278;2024-01-30T04:40:02;17.30;;;11.10;;
5995;SDS011;3026;53.612;7.278;2024-01-30T04:42:30;15.03;;;10.33;;
5995;SDS011;3026;53.612;7.278;2024-01-30T04:44:58;15.53;;;10.60;;
5995;SDS011;3026;53.612;7.278;2024-01-30T04:47:25;15.97;;;10.47;;
5995;SDS011;3026;53.612;7.278;2024-01-30T04:49:52;18.83;;;11.53;;
5995;SDS011;3026;53.612;7.278;2024-01-30T04:52:19;16.17;;;11.00;;
5995;SDS011;3026;53.612;7.278;2024-01-30T04:54:46;14.43;;;10.60;;
5995;SDS011;3026;53.612;7.278;2024-01-30T04:57:15;12.90;;;10.57;;
5995;SDS011;3026;53.612;7.278;2024-01-30T04:59:42;15.17;;;11.27;;
5995;SDS011;3026;53.612;7.278;2024-01-30T05:02:09;15.70;;;11.83;;
5995;SDS011;3026;53.612;7.278;2024-01-30T05:04:36;17.10;;;11.30;;
5995;SDS011;3026;53.612;7.278;2024-01-30T05:07:04;18.33;;;12.37;;
5995;SDS011;3026;53.612;7.278;2024-01-30T05:09:31;15.93;;;11.07;;
5995;SDS011;3026;53.612;7.278;2024-01-30T05:11:59;14.83;;;11.03;;
5995;SDS011;3026;53.612;7.278;2024-01-30T05:14:28;17.63;;;11.57;;
5995;SDS011;3026;53.612;7.278;2024-01-30T05:16:57;17.50;;;11.17;;
5995;SDS011;3026;53.612;7.278;2024-01-30T05:19:24;14.80;;;11.57;;
5995;SDS011;3026;53.612;7.278;2024-01-30T05:21:51;18.80;;;11.60;;
5995;SDS011;3026;53.612;7.278;2024-01-30T05:24:18;13.20;;;11.17;;
5995;SDS011;3026;53.612;7.278;2024-01-30T05:26:45;15.33;;;11.80;;
5995;SDS011;3026;53.612;7.278;2024-01-30T05:29:13;15.87;;;11.47;;
5995;SDS011;3026;53.612;7.278;2024-01-30T05:31:43;16.07;;;11.23;;
5995;SDS011;3026;53.612;7.278;2024-01-30T05:34:10;17.40;;;12.20;;
5995;SDS011;3026;53.612;7.278;2024-01-30T05:36:37;19.70;;;12.70;;
5995;SDS011;3026;53.612;7.278;2024-01-30T05:39:04;15.30;;;11.40;;
5995;SDS011;3026;53.612;7.278;2024-01-30T05:41:32;16.10;;;12.10;;
5995;SDS011;3026;53.612;7.278;2024-01-30T05:44:00;16.83;;;11.17;;
5995;SDS011;3026;53.612;7.278;2024-01-30T05:46:27;16.30;;;11.93;;
5995;SDS011;3026;53.612;7.278;2024-01-30T05:48:56;14.97;;;10.97;;
5995;SDS011;3026;53.612;7.278;2024-01-30T05:51:23;16.57;;;11.10;;
5995;SDS011;3026;53.612;7.278;2024-01-30T05:53:51;17.20;;;11.13;;
5995;SDS011;3026;53.612;7.278;2024-01-30T05:56:18;16.87;;;11.63;;
5995;SDS011;3026;53.612;7.278;2024-01-30T05:58:45;15.47;;;11.30;;
5995;SDS011;3026;53.612;7.278;2024-01-30T06:01:15;19.33;;;12.53;;
5995;SDS011;3026;53.612;7.278;2024-01-30T06:03:43;17.33;;;11.27;;
5995;SDS011;3026;53.612;7.278;2024-01-30T06:06:12;18.70;;;12.27;;
5995;SDS011;3026;53.612;7.278;2024-01-30T06:08:39;16.27;;;12.03;;
5995;SDS011;3026;53.612;7.278;2024-01-30T06:11:10;15.70;;;11.87;;
5995;SDS011;3026;53.612;7.278;2024-01-30T06:13:37;18.77;;;11.63;;
5995;SDS011;3026;53.612;7.278;2024-01-30T06:16:04;16.80;;;11.60;;
5995;SDS011;3026;53.612;7.278;2024-01-30T06:18:35;18.97;;;12.70;;
5995;SDS011;3026;53.612;7.278;2024-01-30T06:21:04;15.40;;;10.47;;
5995;SDS011;3026;53.612;7.278;2024-01-30T06:23:37;16.53;;;11.77;;
5995;SDS011;3026;53.612;7.278;2024-01-30T06:26:06;18.13;;;11.73;;
5995;SDS011;3026;53.612;7.278;2024-01-30T06:28:33;16.67;;;10.90;;
5995;SDS011;3026;53.612;7.278;2024-01-30T06:31:02;18.33;;;11.90;;
5995;SDS011;3026;53.612;7.278;2024-01-30T06:33:29;16.17;;;12.07;;
5995;SDS011;3026;53.612;7.278;2024-01-30T06:35:57;18.63;;;11.40;;
5995;SDS011;3026;53.612;7.278;2024-01-30T06:38:24;17.93;;;11.70;;
5995;SDS011;3026;53.612;7.278;2024-01-30T06:40:52;13.20;;;11.07;;
5995;SDS011;3026;53.612;7.278;2024-01-30T06:43:22;17.07;;;10.87;;
5995;SDS011;3026;53.612;7.278;2024-01-30T06:45:49;18.10;;;11.43;;
5995;SDS011;3026;53.612;7.278;2024-01-30T06:48:17;16.60;;;11.27;;
5995;SDS011;3026;53.612;7.278;2024-01-30T06:50:44;14.27;;;11.30;;
5995;SDS011;3026;53.612;7.278;2024-01-30T06:53:12;17.00;;;11.57;;
5995;SDS011;3026;53.612;7.278;2024-01-30T06:55:39;17.83;;;11.80;;
5995;SDS011;3026;53.612;7.278;2024-01-30T06:58:09;15.63;;;10.80;;
5995;SDS011;3026;53.612;7.278;2024-01-30T07:00:35;17.37;;;11.27;;
5995;SDS011;3026;53.612;7.278;2024-01-30T07:03:03;18.10;;;11.77;;
5995;SDS011;3026;53.612;7.278;2024-01-30T07:05:31;15.33;;;11.37;;
5995;SDS011;3026;53.612;7.278;2024-01-30T07:08:00;17.07;;;11.97;;
5995;SDS011;3026;53.612;7.278;2024-01-30T07:10:27;17.67;;;12.00;;
5995;SDS011;3026;53.612;7.278;2024-01-30T07:12:54;20.20;;;12.23;;
5995;SDS011;3026;53.612;7.278;2024-01-30T07:15:23;16.67;;;11.90;;
5995;SDS011;3026;53.612;7.278;2024-01-30T07:17:51;15.40;;;11.17;;
5995;SDS011;3026;53.612;7.278;2024-01-30T07:20:18;14.73;;;11.50;;
5995;SDS011;3026;53.612;7.278;2024-01-30T07:22:45;15.27;;;12.17;;
5995;SDS011;3026;53.612;7.278;2024-01-30T07:25:17;15.60;;;11.63;;
5995;SDS011;3026;53.612;7.278;2024-01-30T07:27:43;18.53;;;11.80;;
5995;SDS011;3026;53.612;7.278;2024-01-30T07:30:13;19.37;;;11.67;;
5995;SDS011;3026;53.612;7.278;2024-01-30T07:32:44;14.87;;;11.00;;
5995;SDS011;3026;53.612;7.278;2024-01-30T07:35:11;18.97;;;11.67;;
5995;SDS011;3026;53.612;7.278;2024-01-30T07:37:38;15.70;;;11.70;;
5995;SDS011;3026;53.612;7.278;2024-01-30T07:40:06;16.77;;;11.53;;
5995;SDS011;3026;53.612;7.278;2024-01-30T07:42:33;17.40;;;11.30;;
5995;SDS011;3026;53.612;7.278;2024-01-30T07:45:01;16.50;;;11.87;;
5995;SDS011;3026;53.612;7.278;2024-01-30T07:47:28;17.30;;;12.30;;
5995;SDS011;3026;53.612;7.278;2024-01-30T07:49:57;15.30;;;11.57;;
5995;SDS011;3026;53.612;7.278;2024-01-30T07:52:24;15.90;;;11.90;;
5995;SDS011;3026;53.612;7.278;2024-01-30T07:54:51;16.27;;;11.87;;
5995;SDS011;3026;53.612;7.278;2024-01-30T07:57:18;23.13;;;12.90;;
5995;SDS011;3026;53.612;7.278;2024-01-30T07:59:46;14.03;;;11.27;;
5995;SDS011;3026;53.612;7.278;2024-01-30T08:02:13;13.97;;;10.77;;
5995;SDS011;3026;53.612;7.278;2024-01-30T08:04:41;18.90;;;12.90;;
5995;SDS011;3026;53.612;7.278;2024-01-30T08:07:09;18.00;;;12.00;;
5995;SDS011;3026;53.612;7.278;2024-01-30T08:09:36;23.77;;;11.67;;
5995;SDS011;3026;53.612;7.278;2024-01-30T08:12:06;14.30;;;11.90;;
5995;SDS011;3026;53.612;7.278;2024-01-30T08:14:33;18.17;;;12.33;;
5995;SDS011;3026;53.612;7.278;2024-01-30T08:17:00;23.57;;;11.43;;
5995;SDS011;3026;53.612;7.278;2024-01-30T08:19:28;15.27;;;11.20;;
5995;SDS011;3026;53.612;7.278;2024-01-30T08:21:55;16.67;;;11.13;;
5995;SDS011;3026;53.612;7.278;2024-01-30T08:24:28;16.97;;;10.43;;
5995;SDS011;3026;53.612;7.278;2024-01-30T08:26:55;16.53;;;12.00;;
5995;SDS011;3026;53.612;7.278;2024-01-30T08:29:24;16.47;;;11.37;;
5995;SDS011;3026;53.612;7.278;2024-01-30T08:31:51;16.67;;;10.93;;
5995;SDS011;3026;53.612;7.278;2024-01-30T08:34:21;16.77;;;11.50;;
5995;SDS011;3026;53.612;7.278;2024-01-30T08:36:48;16.50;;;10.70;;
5995;SDS011;3026;53.612;7.278;2024-01-30T08:39:15;15.50;;;11.40;;
5995;SDS011;3026;53.612;7.278;2024-01-30T08:41:44;16.03;;;11.07;;
5995;SDS011;3026;53.612;7.278;2024-01-30T08:44:11;13.70;;;11.23;;
5995;SDS011;3026;53.612;7.278;2024-01-30T08:46:38;16.83;;;11.70;;
5995;SDS011;3026;53.612;7.278;2024-01-30T08:49:08;14.70;;;11.07;;
5995;SDS011;3026;53.612;7.278;2024-01-30T08:51:35;17.07;;;11.10;;
5995;SDS011;3026;53.612;7.278;2024-01-30T08:54:02;16.93;;;11.47;;
5995;SDS011;3026;53.612;7.278;2024-01-30T08:56:29;15.50;;;11.13;;
5995;SDS011;3026;53.612;7.278;2024-01-30T08:59:04;14.43;;;10.17;;
5995;SDS011;3026;53.612;7.278;2024-01-30T09:01:31;17.63;;;10.97;;
5995;SDS011;3026;53.612;7.278;2024-01-30T09:03:58;16.27;;;11.10;;
5995;SDS011;3026;53.612;7.278;2024-01-30T09:06:25;15.90;;;11.07;;
5995;SDS011;3026;53.612;7.278;2024-01-30T09:08:54;15.90;;;11.30;;
5995;SDS011;3026;53.612;7.278;2024-01-30T09:11:23;17.03;;;10.97;;
5995;SDS011;3026;53.612;7.278;2024-01-30T09:13:51;13.77;;;10.63;;
5995;SDS011;3026;53.612;7.278;2024-01-30T09:16:20;14.80;;;10.70;;
5995;SDS011;3026;53.612;7.278;2024-01-30T09:18:47;15.33;;;10.73;;
5995;SDS011;3026;53.612;7.278;2024-01-30T09:21:14;17.77;;;11.27;;
5995;SDS011;3026;53.612;7.278;2024-01-30T09:23:43;15.53;;;10.73;;
5995;SDS011;3026;53.612;7.278;2024-01-30T09:26:10;15.90;;;11.43;;
5995;SDS011;3026;53.612;7.278;2024-01-30T09:28:37;14.23;;;10.17;;
5995;SDS011;3026;53.612;7.278;2024-01-30T09:31:09;18.50;;;11.07;;
5995;SDS011;3026;53.612;7.278;2024-01-30T09:33:38;14.53;;;10.80;;
5995;SDS011;3026;53.612;7.278;2024-01-30T09:36:08;16.60;;;10.83;;
5995;SDS011;3026;53.612;7.278;2024-01-30T09:38:35;15.27;;;10.37;;
5995;SDS011;3026;53.612;7.278;2024-01-30T09:41:03;15.93;;;10.80;;
5995;SDS011;3026;53.612;7.278;2024-01-30T09:43:37;13.83;;;11.07;;
5995;SDS011;3026;53.612;7.278;2024-01-30T09:46:06;13.90;;;11.30;;
5995;SDS011;3026;53.612;7.278;2024-01-30T09:48:39;13.23;;;10.40;;
5995;SDS011;3026;53.612;7.278;2024-01-30T09:51:09;14.60;;;10.13;;
5995;SDS011;3026;53.612;7.278;2024-01-30T09:53:36;15.00;;;10.50;;
5995;SDS011;3026;53.612;7.278;2024-01-30T09:56:04;14.23;;;10.17;;
5995;SDS011;3026;53.612;7.278;2024-01-30T09:58:34;15.00;;;10.20;;
5995;SDS011;3026;53.612;7.278;2024-01-30T10:01:01;13.00;;;9.83;;
5995;SDS011;3026;53.612;7.278;2024-01-30T10:03:28;13.77;;;10.10;;
5995;SDS011;3026;53.612;7.278;2024-01-30T10:05:56;17.03;;;10.10;;
5995;SDS011;3026;53.612;7.278;2024-01-30T10:08:25;14.33;;;9.83;;
5995;SDS011;3026;53.612;7.278;2024-01-30T10:10:55;15.37;;;9.80;;
5995;SDS011;3026;53.612;7.278;2024-01-30T10:13:23;16.73;;;10.83;;
5995;SDS011;3026;53.612;7.278;2024-01-30T10:15:50;15.33;;;10.67;;
5995;SDS011;3026;53.612;7.278;2024-01-30T10:18:18;15.07;;;9.90;;
5995;SDS011;3026;53.612;7.278;2024-01-30T10:20:45;15.33;;;9.93;;
5995;SDS011;3026;53.612;7.278;2024-01-30T10:23:25;15.37;;;10.50;;
5995;SDS011;3026;53.612;7.278;2024-01-30T10:25:53;13.10;;;9.87;;
5995;SDS011;3026;53.612;7.278;2024-01-30T10:28:20;16.67;;;9.90;;
5995;SDS011;3026;53.612;7.278;2024-01-30T10:30:57;14.03;;;10.70;;
5995;SDS011;3026;53.612;7.278;2024-01-30T10:33:25;14.53;;;9.23;;
5995;SDS011;3026;53.612;7.278;2024-01-30T10:35:54;15.20;;;9.53;;
5995;SDS011;3026;53.612;7.278;2024-01-30T10:38:29;15.90;;;9.30;;
5995;SDS011;3026;53.612;7.278;2024-01-30T10:40:58;14.73;;;9.53;;
5995;SDS011;3026;53.612;7.278;2024-01-30T10:43:28;12.87;;;9.17;;
5995;SDS011;3026;53.612;7.278;2024-01-30T10:46:01;17.73;;;10.03;;
5995;SDS011;3026;53.612;7.278;2024-01-30T10:48:33;20.17;;;9.90;;
5995;SDS011;3026;53.612;7.278;2024-01-30T10:51:09;14.03;;;8.87;;
5995;SDS011;3026;53.612;7.278;2024-01-30T10:53:41;11.40;;;8.40;;
5995;SDS011;3026;53.612;7.278;2024-01-30T10:56:09;13.57;;;9.23;;
5995;SDS011;3026;53.612;7.278;2024-01-30T10:58:38;16.93;;;10.70;;
5995;SDS011;3026;53.612;7.278;2024-01-30T11:01:05;15.70;;;10.00;;
5995;SDS011;3026;53.612;7.278;2024-01-30T11:03:34;15.67;;;9.63;;
5995;SDS011;3026;53.612;7.278;2024-01-30T11:06:02;14.90;;;9.83;;
5995;SDS011;3026;53.612;7.278;2024-01-30T11:08:32;15.67;;;8.70;;
5995;SDS011;3026;53.612;7.278;2024-01-30T11:11:01;16.40;;;9.70;;
5995;SDS011;3026;53.612;7.278;2024-01-30T11:13:28;14.27;;;9.23;;
5995;SDS011;3026;53.612;7.278;2024-01-30T11:15:59;13.70;;;8.83;;
5995;SDS011;3026;53.612;7.278;2024-01-30T11:18:28;17.57;;;9.10;;
5995;SDS011;3026;53.612;7.278;2024-01-30T11:20:56;19.83;;;9.53;;
5995;SDS011;3026;53.612;7.278;2024-01-30T11:23:26;17.00;;;8.87;;
5995;SDS011;3026;53.612;7.278;2024-01-30T11:25:56;13.47;;;8.67;;
5995;SDS011;3026;53.612;7.278;2024-01-30T11:28:25;13.83;;;8.57;;
5995;SDS011;3026;53.612;7.278;2024-01-30T11:31:04;16.07;;;9.10;;
5995;SDS011;3026;53.612;7.278;2024-01-30T11:33:32;13.20;;;8.60;;
5995;SDS011;3026;53.612;7.278;2024-01-30T11:36:00;13.83;;;8.70;;
5995;SDS011;3026;53.612;7.278;2024-01-30T11:38:28;13.37;;;8.67;;
5995;SDS011;3026;53.612;7.278;2024-01-30T11:40:55;12.57;;;8.47;;
5995;SDS011;3026;53.612;7.278;2024-01-30T11:43:29;13.53;;;9.20;;
5995;SDS011;3026;53.612;7.278;2024-01-30T11:45:58;13.33;;;9.10;;
5995;SDS011;3026;53.612;7.278;2024-01-30T11:48:26;12.53;;;8.80;;
5995;SDS011;3026;53.612;7.278;2024-01-30T11:50:53;11.57;;;8.67;;
5995;SDS011;3026;53.612;7.278;2024-01-30T11:53:24;16.87;;;9.83;;
5995;SDS011;3026;53.612;7.278;2024-01-30T11:55:52;14.50;;;8.67;;
5995;SDS011;3026;53.612;7.278;2024-01-30T11:58:20;12.03;;;8.40;;
5995;SDS011;3026;53.612;7.278;2024-01-30T12:00:53;14.82;;;9.40;;
5995;SDS011;3026;53.612;7.278;2024-01-30T12:03:22;13.63;;;8.77;;
5995;SDS011;3026;53.612;7.278;2024-01-30T12:05:54;11.53;;;7.00;;
5995;SDS011;3026;53.612;7.278;2024-01-30T12:08:23;10.33;;;6.67;;
5995;SDS011;3026;53.612;7.278;2024-01-30T12:10:55;11.10;;;6.10;;
5995;SDS011;3026;53.612;7.278;2024-01-30T12:13:23;9.93;;;5.83;;
5995;SDS011;3026;53.612;7.278;2024-01-30T12:15:52;9.17;;;5.20;;
5995;SDS011;3026;53.612;7.278;2024-01-30T12:18:21;6.93;;;4.53;;
5995;SDS011;3026;53.612;7.278;2024-01-30T12:20:57;10.00;;;4.80;;
5995;SDS011;3026;53.612;7.278;2024-01-30T12:23:26;8.93;;;4.40;;
5995;SDS011;3026;53.612;7.278;2024-01-30T12:26:00;10.47;;;5.00;;
5995;SDS011;3026;53.612;7.278;2024-01-30T12:28:30;19.60;;;5.03;;
5995;SDS011;3026;53.612;7.278;2024-01-30T12:31:00;8.77;;;4.43;;
5995;SDS011;3026;53.612;7.278;2024-01-30T12:33:29;8.73;;;4.03;;
5995;SDS011;3026;53.612;7.278;2024-01-30T12:35:57;9.83;;;4.40;;
5995;SDS011;3026;53.612;7.278;2024-01-30T12:38:28;7.30;;;4.10;;
5995;SDS011;3026;53.612;7.278;2024-01-30T12:40:55;10.07;;;4.03;;
5995;SDS011;3026;53.612;7.278;2024-01-30T12:43:25;10.17;;;4.00;;
5995;SDS011;3026;53.612;7.278;2024-01-30T12:45:54;11.47;;;3.97;;
5995;SDS011;3026;53.612;7.278;2024-01-30T12:48:22;7.67;;;3.90;;
5995;SDS011;3026;53.612;7.278;2024-01-30T12:50:49;7.70;;;3.53;;
5995;SDS011;3026;53.612;7.278;2024-01-30T12:53:17;7.57;;;3.00;;
5995;SDS011;3026;53.612;7.278;2024-01-30T12:55:44;7.07;;;3.73;;
5995;SDS011;3026;53.612;7.278;2024-01-30T12:58:14;8.80;;;2.87;;
5995;SDS011;3026;53.612;7.278;2024-01-30T13:00:42;5.30;;;2.70;;
5995;SDS011;3026;53.612;7.278;2024-01-30T13:03:12;9.47;;;2.83;;
5995;SDS011;3026;53.612;7.278;2024-01-30T13:05:39;7.87;;;2.90;;
5995;SDS011;3026;53.612;7.278;2024-01-30T13:08:08;6.80;;;2.37;;
5995;SDS011;3026;53.612;7.278;2024-01-30T13:10:35;3.93;;;2.40;;
5995;SDS011;3026;53.612;7.278;2024-01-30T13:13:02;7.10;;;2.83;;
5995;SDS011;3026;53.612;7.278;2024-01-30T13:15:30;8.80;;;2.50;;
5995;SDS011;3026;53.612;7.278;2024-01-30T13:17:57;9.73;;;3.20;;
5995;SDS011;3026;53.612;7.278;2024-01-30T13:20:25;6.67;;;3.17;;
5995;SDS011;3026;53.612;7.278;2024-01-30T13:22:54;7.47;;;2.50;;
5995;SDS011;3026;53.612;7.278;2024-01-30T13:25:21;5.23;;;2.27;;
5995;SDS011;3026;53.612;7.278;2024-01-30T13:27:48;5.67;;;2.30;;
5995;SDS011;3026;53.612;7.278;2024-01-30T13:30:15;4.83;;;1.77;;
5995;SDS011;3026;53.612;7.278;2024-01-30T13:32:47;5.10;;;2.20;;
5995;SDS011;3026;53.612;7.278;2024-01-30T13:35:14;3.87;;;1.53;;
5995;SDS011;3026;53.612;7.278;2024-01-30T13:37:44;4.37;;;1.90;;
5995;SDS011;3026;53.612;7.278;2024-01-30T13:40:13;2.57;;;1.43;;
5995;SDS011;3026;53.612;7.278;2024-01-30T13:42:43;3.97;;;1.20;;
5995;SDS011;3026;53.612;7.278;2024-01-30T13:45:10;1.50;;;1.30;;
5995;SDS011;3026;53.612;7.278;2024-01-30T13:47:37;1.63;;;1.00;;
5995;SDS011;3026;53.612;7.278;2024-01-30T13:50:05;2.37;;;1.10;;
5995;SDS011;3026;53.612;7.278;2024-01-30T13:52:35;4.77;;;1.00;;
5995;SDS011;3026;53.612;7.278;2024-01-30T13:55:03;3.10;;;0.60;;
5995;SDS011;3026;53.612;7.278;2024-01-30T13:57:36;1.53;;;0.73;;
5995;SDS011;3026;53.612;7.278;2024-01-30T14:00:05;5.83;;;1.07;;
5995;SDS011;3026;53.612;7.278;2024-01-30T14:02:33;2.20;;;1.07;;
5995;SDS011;3026;53.612;7.278;2024-01-30T14:05:00;2.63;;;0.70;;
5995;SDS011;3026;53.612;7.278;2024-01-30T14:07:29;5.17;;;0.97;;
5995;SDS011;3026;53.612;7.278;2024-01-30T14:09:59;2.77;;;1.00;;
5995;SDS011;3026;53.612;7.278;2024-01-30T14:12:29;3.23;;;0.80;;
5995;SDS011;3026;53.612;7.278;2024-01-30T14:14:56;1.50;;;0.97;;
5995;SDS011;3026;53.612;7.278;2024-01-30T14:17:26;3.50;;;0.80;;
5995;SDS011;3026;53.612;7.278;2024-01-30T14:19:53;0.83;;;0.67;;
5995;SDS011;3026;53.612;7.278;2024-01-30T14:22:20;4.33;;;0.80;;
5995;SDS011;3026;53.612;7.278;2024-01-30T14:24:47;2.10;;;0.90;;
5995;SDS011;3026;53.612;7.278;2024-01-30T14:27:16;1.23;;;0.77;;
5995;SDS011;3026;53.612;7.278;2024-01-30T14:29:45;3.10;;;0.73;;
5995;SDS011;3026;53.612;7.278;2024-01-30T14:32:12;2.13;;;0.93;;
5995;SDS011;3026;53.612;7.278;2024-01-30T14:34:39;1.87;;;1.00;;
5995;SDS011;3026;53.612;7.278;2024-01-30T14:37:06;0.97;;;0.73;;
5995;SDS011;3026;53.612;7.278;2024-01-30T14:39:35;1.90;;;0.80;;
5995;SDS011;3026;53.612;7.278;2024-01-30T14:42:02;2.47;;;0.90;;
5995;SDS011;3026;53.612;7.278;2024-01-30T14:44:30;3.70;;;0.90;;
5995;SDS011;3026;53.612;7.278;2024-01-30T14:47:04;2.47;;;0.90;;
5995;SDS011;3026;53.612;7.278;2024-01-30T14:49:37;1.80;;;1.07;;
5995;SDS011;3026;53.612;7.278;2024-01-30T14:52:04;1.20;;;0.80;;
5995;SDS011;3026;53.612;7.278;2024-01-30T14:54:32;1.40;;;1.00;;
5995;SDS011;3026;53.612;7.278;2024-01-30T14:56:59;1.50;;;0.90;;
5995;SDS011;3026;53.612;7.278;2024-01-30T14:59:27;2.00;;;1.23;;
5995;SDS011;3026;53.612;7.278;2024-01-30T15:01:55;3.73;;;1.50;;